CDT,Max TemperatureF,Mean TemperatureF,Min TemperatureF,Max Dew PointF,MeanDew PointF,Min DewpointF,Max Humidity, Mean Humidity, Min Humidity, Max Sea Level PressureIn, Mean Sea Level PressureIn, Min Sea Level PressureIn, Max VisibilityMiles, Mean VisibilityMiles, Min VisibilityMiles, Max Wind SpeedMPH, Mean Wind SpeedMPH, Max Gust SpeedMPH,PrecipitationIn, CloudCover, Events, WindDirDegrees
2013-8-1,91,80,68,72,66,61,100,70,36,30.11,30.06,29.98,10,10,7,8,2,,0.00,0,,70
2013-8-2,89,80,71,77,72,64,88,78,62,30.00,29.94,29.88,10,10,10,13,4,17,0.00,0,,145
2013-8-3,80,74,68,73,71,66,94,84,74,30.12,30.03,29.92,10,10,4,15,5,23,0.12,0,,117
2013-8-4,87,79,71,75,72,68,100,83,66,30.12,30.06,30.01,10,10,10,13,3,18,0.00,0,,106
2013-8-5,95,83,71,73,72,70,100,73,49,30.03,29.95,29.86,10,10,1,12,7,17,0.01,0,,172
2013-8-6,95,84,73,73,71,70,88,66,44,29.91,29.87,29.81,10,9,0,9,4,,0.00,0,,175
2013-8-7,93,83,73,77,73,70,94,71,52,29.93,29.88,29.84,10,10,2,10,4,,0.02,0,,104
2013-8-8,82,76,69,75,72,68,100,86,70,29.98,29.91,29.85,10,10,1,12,4,,0.20,2,,82
2013-8-9,82,75,68,72,70,68,100,86,70,30.05,29.99,29.93,10,9,2,10,4,20,0.61,3,,27
2013-8-10,86,77,68,72,69,66,100,82,58,30.12,30.08,30.04,10,10,5,12,3,,0.00,5,,27
2013-8-11,87,78,68,72,69,66,100,79,52,30.12,30.08,30.03,10,10,7,8,2,,0.00,2,,236
2013-8-12,84,76,69,73,71,68,100,87,70,30.09,30.03,29.97,10,8,3,16,1,24,0.06,0,,86
2013-8-13,84,76,68,72,69,64,100,90,62,30.07,30.04,30.00,10,8,1,14,1,26,0.37,4,,97
2013-8-14,80,71,62,68,62,59,100,75,48,30.15,30.10,30.06,10,10,10,12,5,16,0.00,1,,63
2013-8-15,80,68,55,63,58,54,100,73,48,30.15,30.09,30.02,10,10,10,8,1,,0.00,1,,129
2013-8-16,78,70,62,63,60,57,94,74,51,30.14,30.09,30.04,10,10,7,7,2,,0.00,2,,102
2013-8-17,78,66,55,61,59,55,100,75,51,30.16,30.13,30.07,10,10,10,9,2,,0.00,1,,55
2013-8-18,86,72,59,66,62,57,100,76,43,30.16,30.11,30.06,10,9,3,6,0,,0.00,1,,88
2013-8-19,87,73,59,66,62,59,100,76,40,30.14,30.09,30.02,10,9,5,7,0,,0.00,0,,150
2013-8-20,87,73,59,66,62,59,100,74,43,30.11,30.07,30.03,10,10,7,7,1,,0.00,0,,149
2013-8-21,89,76,62,68,64,61,100,72,43,30.14,30.09,30.06,10,10,10,8,2,,0.00,0,,182
2013-8-22,91,78,64,70,66,63,94,72,41,30.14,30.08,30.02,10,10,7,7,1,,0.00,0,,176
2013-8-23,91,78,66,72,69,64,100,82,49,30.10,30.06,30.01,10,9,1,12,1,17,0.15,1,,127
2013-8-24,89,78,68,72,69,68,100,75,49,30.16,30.11,30.06,10,10,7,9,3,,0.00,0,,117
2013-8-25,91,80,69,72,69,68,94,73,46,30.22,30.18,30.14,10,9,7,7,3,,0.00,0,,126
2013-8-26,89,78,68,72,68,64,94,73,43,30.24,30.18,30.12,10,10,10,8,3,,0.00,1,,163
2013-8-27,89,76,64,70,65,63,94,71,43,30.16,30.10,30.04,10,10,10,9,2,,0.00,1,,201
2013-8-28,91,78,64,70,67,64,100,72,41,30.11,30.07,30.04,10,10,7,9,2,16,0.00,0,,222
2013-8-29,96,82,68,73,68,64,100,71,34,30.11,30.05,30.01,10,10,5,9,1,,0.00,0,,263
2013-8-30,96,82,68,72,67,64,100,67,36,30.04,29.98,29.90,10,10,7,12,2,16,0.00,0,,226
2013-8-31,98,83,68,72,67,63,100,65,30,29.94,29.89,29.82,10,10,7,10,2,16,0.00,0,,217